Time;durP1;ratioP1;P1;durP2;ratioP2;P2;SDS_P1;SDS_P2;PMS_P1;PMS_P2;Temp;Humidity;BMP_temperature;BMP_pressure;BME280_temperature;BME280_humidity;BME280_pressure;Samples;Min_cycle;Max_cycle;Signal;HPM_P1;HPM_P2
2020/12/22 05:35:41;;;;;;;1999.90;999.90;;;7.30;99.90;;;;;;5065106;28;20566;-47
2020/12/22 05:38:07;;;;;;;1999.90;999.90;;;7.40;99.90;;;;;;5068823;28;20431;-45
2020/12/22 05:40:33;;;;;;;1999.90;999.90;;;7.40;99.90;;;;;;5057851;28;20428;-45
2020/12/22 05:43:00;;;;;;;1999.90;999.90;;;7.50;99.90;;;;;;5069528;28;20607;-46
2020/12/22 05:45:33;;;;;;;1999.90;999.90;;;7.50;99.90;;;;;;5058374;28;20521;-48
2020/12/22 05:47:58;;;;;;;1999.90;999.90;;;7.60;99.90;;;;;;5050047;28;20488;-46
2020/12/22 05:50:24;;;;;;;1999.90;999.90;;;7.60;99.90;;;;;;5049381;28;20453;-46
2020/12/22 05:52:56;;;;;;;1999.90;999.90;;;7.70;99.90;;;;;;5049570;28;20240;-46
2020/12/22 05:55:32;;;;;;;1999.90;999.90;;;7.70;99.90;;;;;;5061108;28;20223;-47
2020/12/22 05:58:08;;;;;;;1999.90;999.90;;;7.70;99.90;;;;;;5052441;28;20742;-46
2020/12/22 06:00:34;;;;;;;1999.90;999.90;;;7.80;99.90;;;;;;5052331;28;20430;-46
2020/12/22 06:03:13;;;;;;;1999.90;999.90;;;7.90;99.90;;;;;;5057337;28;20478;-47
2020/12/22 06:05:44;;;;;;;1999.90;999.90;;;7.90;99.90;;;;;;5069379;28;20885;-47
2020/12/22 06:08:11;;;;;;;1999.90;999.90;;;7.90;99.90;;;;;;5050159;28;20438;-47
2020/12/22 06:10:38;;;;;;;1999.90;999.90;;;7.90;99.90;;;;;;5048474;28;20584;-48
2020/12/22 06:13:08;;;;;;;1999.90;999.90;;;8.00;99.90;;;;;;5060124;28;20451;-46
2020/12/22 06:15:34;;;;;;;1999.90;999.90;;;8.00;99.90;;;;;;5064311;28;22597;-46
2020/12/22 06:18:01;;;;;;;1999.90;999.90;;;8.00;99.90;;;;;;5056843;28;20526;-46
2020/12/22 06:20:28;;;;;;;1999.90;999.90;;;8.10;99.90;;;;;;5066955;28;20465;-48
2020/12/22 06:23:05;;;;;;;1999.90;999.90;;;8.10;99.90;;;;;;5066827;28;20440;-45
2020/12/22 06:25:32;;;;;;;1999.90;999.90;;;8.20;99.90;;;;;;5049068;28;20456;-45
2020/12/22 06:27:57;;;;;;;1999.90;999.90;;;8.20;99.90;;;;;;5048261;28;20419;-45
2020/12/22 06:30:38;;;;;;;1999.90;999.90;;;8.30;99.90;;;;;;5063270;28;20521;-47
2020/12/22 06:33:21;;;;;;;1999.90;999.90;;;8.30;99.90;;;;;;5048413;28;20673;-45
2020/12/22 06:36:06;;;;;;;1999.90;999.90;;;8.30;99.90;;;;;;5067325;28;20415;-46
2020/12/22 06:38:51;;;;;;;1999.90;999.90;;;8.30;99.90;;;;;;5064919;28;20414;-46
2020/12/22 06:41:35;;;;;;;1999.90;999.90;;;8.40;99.90;;;;;;5049460;28;20475;-46
2020/12/22 06:44:26;;;;;;;1999.90;999.90;;;8.50;99.90;;;;;;5051263;28;20450;-46
2020/12/22 06:46:52;;;;;;;1999.90;999.90;;;8.40;99.90;;;;;;5042245;28;20418;-46
2020/12/22 06:49:19;;;;;;;1999.90;999.90;;;8.50;99.90;;;;;;5042986;28;20470;-50
2020/12/22 06:51:45;;;;;;;1999.90;999.90;;;8.50;99.90;;;;;;5038870;28;20189;-46
2020/12/22 06:54:13;;;;;;;1999.90;999.90;;;8.50;99.90;;;;;;5054125;28;20471;-46
2020/12/22 06:56:51;;;;;;;1999.90;999.90;;;8.60;99.90;;;;;;5047775;28;20193;-46
2020/12/22 06:59:45;;;;;;;1999.90;999.90;;;8.60;99.90;;;;;;5050685;28;20440;-46
2020/12/22 07:02:31;;;;;;;1999.90;999.90;;;8.60;99.90;;;;;;5044431;28;20517;-48
2020/12/22 07:04:58;;;;;;;1999.90;999.90;;;8.60;99.90;;;;;;5047458;28;20452;-48
2020/12/22 07:07:24;;;;;;;1999.90;999.90;;;8.70;99.90;;;;;;5039488;28;20469;-45
2020/12/22 07:10:00;;;;;;;1999.90;999.90;;;8.70;99.90;;;;;;5034202;28;20472;-46
2020/12/22 07:12:26;;;;;;;1999.90;999.90;;;8.70;99.90;;;;;;5037017;28;20276;-46
2020/12/22 07:14:52;;;;;;;1999.90;999.90;;;8.70;99.90;;;;;;5034221;28;20564;-46
2020/12/22 07:17:19;;;;;;;1999.90;999.90;;;8.80;99.90;;;;;;5034533;28;20238;-46
2020/12/22 07:19:47;;;;;;;1999.90;999.90;;;8.90;99.90;;;;;;5034557;28;20204;-46
2020/12/22 07:22:14;;;;;;;1999.90;999.90;;;8.90;99.90;;;;;;5035575;28;20461;-46
2020/12/22 07:24:41;;;;;;;1999.90;999.90;;;8.90;99.90;;;;;;5042226;28;20521;-48
2020/12/22 07:27:07;;;;;;;1999.90;999.90;;;9.00;99.90;;;;;;5033850;28;20941;-48
2020/12/22 07:29:40;;;;;;;1999.90;999.90;;;9.00;99.90;;;;;;5034471;28;20453;-46
2020/12/22 07:32:07;;;;;;;1999.90;999.90;;;9.00;99.90;;;;;;5038735;28;20524;-46
2020/12/22 07:34:34;;;;;;;1999.90;999.90;;;9.10;99.90;;;;;;5050705;28;20469;-46
2020/12/22 07:37:18;;;;;;;1999.90;999.90;;;9.10;99.90;;;;;;5044193;28;20856;-48
2020/12/22 07:39:43;;;;;;;1999.90;999.90;;;9.10;99.90;;;;;;5046843;28;20432;-46
2020/12/22 07:42:13;;;;;;;1999.90;999.90;;;9.10;99.90;;;;;;5045304;28;20436;-48
2020/12/22 07:44:39;;;;;;;1999.90;999.90;;;9.20;99.90;;;;;;5037840;28;20198;-47
2020/12/22 07:47:05;;;;;;;1999.90;999.90;;;9.20;99.90;;;;;;5050557;28;20421;-47
2020/12/22 07:49:31;;;;;;;1999.90;999.90;;;9.20;99.90;;;;;;5050258;28;20492;-46
2020/12/22 07:51:57;;;;;;;1999.90;999.90;;;9.20;99.90;;;;;;5049726;28;20290;-50
2020/12/22 07:54:25;;;;;;;1999.90;999.90;;;9.30;99.90;;;;;;5043226;28;20226;-46
2020/12/22 07:56:52;;;;;;;1999.90;999.90;;;9.30;99.90;;;;;;5041279;28;22002;-49
2020/12/22 07:59:18;;;;;;;1999.90;999.90;;;9.40;99.90;;;;;;5033178;28;20400;-47
2020/12/22 08:01:50;;;;;;;1999.90;999.90;;;9.40;99.90;;;;;;5041564;28;20440;-47
2020/12/22 08:04:21;;;;;;;1999.90;999.90;;;9.40;99.90;;;;;;5034145;28;20485;-48
2020/12/22 08:07:01;;;;;;;1999.90;999.90;;;9.50;99.90;;;;;;5035806;28;20433;-47
2020/12/22 08:09:32;;;;;;;1999.90;999.90;;;9.50;99.90;;;;;;5036115;28;21120;-47
2020/12/22 08:12:03;;;;;;;1999.90;999.90;;;9.50;99.90;;;;;;5042927;28;20904;-48
2020/12/22 08:14:30;;;;;;;1999.90;999.90;;;9.50;99.90;;;;;;5032753;28;20515;-48
2020/12/22 08:16:58;;;;;;;1999.90;999.90;;;9.50;99.90;;;;;;5044815;28;20546;-48
2020/12/22 08:19:27;;;;;;;1999.90;999.90;;;9.60;99.90;;;;;;5031847;28;20439;-47
2020/12/22 08:21:55;;;;;;;1999.90;999.90;;;9.60;99.90;;;;;;5035184;28;20436;-48
2020/12/22 08:24:21;;;;;;;1999.90;999.90;;;9.70;99.90;;;;;;5046740;28;20459;-48
2020/12/22 08:26:51;;;;;;;1999.90;999.90;;;9.70;99.90;;;;;;5039178;28;20440;-49
2020/12/22 08:29:18;;;;;;;1999.90;999.90;;;9.80;99.90;;;;;;5031035;28;20472;-46
2020/12/22 08:31:46;;;;;;;1999.90;999.90;;;9.90;99.90;;;;;;5050482;28;20421;-48
2020/12/22 08:34:15;;;;;;;1999.90;999.90;;;9.90;99.90;;;;;;5041577;28;20540;-48
2020/12/22 08:36:42;;;;;;;1999.90;999.90;;;10.00;99.90;;;;;;5045204;28;20439;-48
2020/12/22 08:39:12;;;;;;;1999.90;999.90;;;10.00;99.90;;;;;;5031083;28;21066;-47
2020/12/22 08:41:39;;;;;;;1999.90;999.90;;;10.10;99.90;;;;;;5047233;28;20848;-47
2020/12/22 08:44:05;;;;;;;1999.90;999.90;;;10.10;99.90;;;;;;5038152;28;20996;-48
2020/12/22 08:46:31;;;;;;;1999.90;999.90;;;10.20;99.90;;;;;;5050314;28;20430;-48
2020/12/22 08:49:09;;;;;;;1999.90;999.90;;;10.30;99.90;;;;;;5047724;28;20435;-47
2020/12/22 08:51:35;;;;;;;1999.90;999.90;;;10.30;99.90;;;;;;5049997;28;20846;-48
2020/12/22 08:54:02;;;;;;;1999.90;999.90;;;10.30;99.90;;;;;;5042699;28;20505;-47
2020/12/22 08:56:28;;;;;;;1999.90;999.90;;;10.30;99.90;;;;;;5043379;28;20595;-47
2020/12/22 08:59:02;;;;;;;1999.90;999.90;;;10.40;99.90;;;;;;5049510;28;20422;-47
2020/12/22 09:01:37;;;;;;;1999.90;999.90;;;10.40;99.90;;;;;;5043519;28;20440;-47
2020/12/22 09:04:03;;;;;;;1999.90;999.90;;;10.40;99.90;;;;;;5040104;28;20459;-48
2020/12/22 09:06:39;;;;;;;1999.90;999.90;;;10.40;99.90;;;;;;5042721;28;21224;-47
2020/12/22 09:09:08;;;;;;;1999.90;999.90;;;10.40;99.90;;;;;;5025840;28;20679;-46
2020/12/22 09:11:35;;;;;;;1999.90;999.90;;;10.50;99.90;;;;;;5045478;28;20424;-46
2020/12/22 09:14:10;;;;;;;1999.90;999.90;;;10.50;99.90;;;;;;5042652;28;20478;-46
2020/12/22 09:16:44;;;;;;;1999.90;999.90;;;10.50;99.90;;;;;;5047847;28;20416;-49
2020/12/22 09:19:10;;;;;;;1999.90;999.90;;;10.70;99.90;;;;;;5046024;28;20435;-47
2020/12/22 09:21:35;;;;;;;1999.90;999.90;;;10.70;99.90;;;;;;5046013;28;20424;-46
2020/12/22 09:24:01;;;;;;;1999.90;999.90;;;10.80;99.90;;;;;;5041169;28;20295;-47
2020/12/22 09:26:27;;;;;;;1999.90;999.90;;;10.80;99.90;;;;;;5046388;28;20542;-47
2020/12/22 09:28:52;;;;;;;1999.90;999.90;;;10.80;99.90;;;;;;5041424;28;20220;-48
2020/12/22 09:31:25;;;;;;;1999.90;999.90;;;10.90;99.90;;;;;;5047446;28;20697;-46
2020/12/22 09:33:51;;;;;;;1999.90;999.90;;;11.10;99.90;;;;;;5038343;28;20233;-47
2020/12/22 09:36:17;;;;;;;1999.90;999.90;;;11.10;99.90;;;;;;5032741;28;20461;-49
2020/12/22 09:38:42;;;;;;;1999.90;999.90;;;11.20;99.90;;;;;;5029175;28;20269;-49
2020/12/22 15:13:45;;;;;;;1999.90;999.90;;;11.00;99.90;;;;;;5046784;28;20624;-48
2020/12/22 15:16:11;;;;;;;1999.90;999.90;;;10.90;99.90;;;;;;5041377;28;20437;-48
2020/12/22 15:18:37;;;;;;;1999.90;999.90;;;11.00;99.90;;;;;;5029234;28;20808;-47
2020/12/22 15:21:04;;;;;;;1999.90;999.90;;;11.10;99.90;;;;;;5031186;28;20199;-47
2020/12/22 15:23:30;;;;;;;1999.90;999.90;;;11.00;99.90;;;;;;5030610;28;21018;-48
2020/12/22 15:25:59;;;;;;;1999.90;999.90;;;10.90;99.90;;;;;;5037161;28;20475;-48
2020/12/22 15:28:25;;;;;;;1999.90;999.90;;;10.90;99.90;;;;;;5043498;28;20535;-47
2020/12/22 15:30:52;;;;;;;1999.90;999.90;;;10.80;99.90;;;;;;5043424;28;20436;-47
2020/12/22 15:33:18;;;;;;;1999.90;999.90;;;10.70;99.90;;;;;;5042540;28;20487;-46
2020/12/22 15:35:45;;;;;;;1999.90;999.90;;;10.70;99.90;;;;;;5039455;28;20926;-45
2020/12/22 15:38:11;;;;;;;1999.90;999.90;;;10.60;99.90;;;;;;5042794;28;20887;-49
2020/12/22 15:40:39;;;;;;;1999.90;999.90;;;10.60;99.90;;;;;;5038345;28;20485;-45
2020/12/22 15:43:05;;;;;;;1999.90;999.90;;;10.60;99.90;;;;;;5037835;28;20477;-46
2020/12/22 15:45:32;;;;;;;1999.90;999.90;;;10.60;99.90;;;;;;5026192;28;20449;-49
2020/12/22 15:47:58;;;;;;;1999.90;999.90;;;10.50;99.90;;;;;;5031056;28;20451;-47
2020/12/22 15:50:24;;;;;;;1999.90;999.90;;;10.40;99.90;;;;;;5038882;28;20488;-46
2020/12/22 15:52:50;;;;;;;1999.90;999.90;;;10.40;99.90;;;;;;5025378;28;20465;-48
2020/12/22 15:55:17;;;;;;;1999.90;999.90;;;10.30;99.90;;;;;;5025819;28;20437;-47
2020/12/22 15:57:43;;;;;;;1999.90;999.90;;;10.10;99.90;;;;;;5028877;28;20880;-47
2020/12/22 16:00:09;;;;;;;1999.90;999.90;;;10.00;99.90;;;;;;5027496;28;20431;-48
2020/12/22 16:02:34;;;;;;;1999.90;999.90;;;9.90;99.90;;;;;;5032257;28;20223;-46
2020/12/22 16:05:00;;;;;;;1999.90;999.90;;;9.90;99.90;;;;;;5032807;28;20373;-49
2020/12/22 16:07:26;;;;;;;1999.90;999.90;;;9.80;99.90;;;;;;5029779;28;20196;-49
2020/12/22 16:09:52;;;;;;;1999.90;999.90;;;9.70;99.90;;;;;;5033038;28;20289;-47
2020/12/22 16:12:18;;;;;;;1999.90;999.90;;;9.60;99.90;;;;;;5030810;28;20477;-46
2020/12/22 16:14:43;;;;;;;1999.90;999.90;;;9.60;99.90;;;;;;5041833;28;20449;-46
2020/12/22 16:17:09;;;;;;;1999.90;999.90;;;9.60;99.90;;;;;;5041449;28;20419;-50
2020/12/22 16:19:35;;;;;;;1999.90;999.90;;;9.60;99.90;;;;;;5030820;28;20202;-48
2020/12/22 16:22:00;;;;;;;1999.90;999.90;;;9.60;99.90;;;;;;5030441;28;20556;-47
2020/12/22 16:24:26;;;;;;;1999.90;999.90;;;9.60;99.90;;;;;;5016950;28;20236;-47
2020/12/22 16:26:52;;;;;;;1999.90;999.90;;;9.70;99.90;;;;;;5014934;28;20194;-48
2020/12/22 16:29:18;;;;;;;1999.90;999.90;;;9.70;99.90;;;;;;5016694;28;20201;-48
2020/12/22 16:31:43;;;;;;;1999.90;999.90;;;9.80;99.90;;;;;;5014025;28;20628;-47
2020/12/22 16:34:10;;;;;;;1999.90;999.90;;;9.90;99.90;;;;;;5008607;28;20315;-46
2020/12/22 16:36:35;;;;;;;1999.90;999.90;;;10.00;99.90;;;;;;5004289;28;20843;-48
2020/12/22 16:39:08;;;;;;;1999.90;999.90;;;10.00;99.90;;;;;;5018570;28;20469;-46
2020/12/22 16:41:35;;;;;;;1999.90;999.90;;;10.00;99.90;;;;;;5024103;28;20200;-48
2020/12/22 16:44:01;;;;;;;1999.90;999.90;;;10.10;99.90;;;;;;5010931;28;20466;-48
2020/12/22 16:46:26;;;;;;;1999.90;999.90;;;10.10;99.90;;;;;;5011751;28;20448;-47
2020/12/22 16:48:56;;;;;;;1999.90;999.90;;;10.20;99.90;;;;;;5012599;28;20449;-46
2020/12/22 16:51:22;;;;;;;1999.90;999.90;;;10.20;99.90;;;;;;5024552;28;20198;-48
2020/12/22 16:53:48;;;;;;;1999.90;999.90;;;10.20;99.90;;;;;;5026592;28;20815;-46
2020/12/22 16:56:25;;;;;;;1999.90;999.90;;;10.30;99.90;;;;;;5026891;28;20179;-47
2020/12/22 16:58:52;;;;;;;1999.90;999.90;;;10.30;99.90;;;;;;5026534;28;20471;-48
2020/12/22 17:01:17;;;;;;;1999.90;999.90;;;10.30;99.90;;;;;;5025331;28;20420;-47
2020/12/22 17:03:44;;;;;;;1999.90;999.90;;;10.30;99.90;;;;;;5027004;28;20440;-49
2020/12/22 17:06:10;;;;;;;1999.90;999.90;;;10.30;99.90;;;;;;5027439;28;20276;-48
2020/12/22 17:08:36;;;;;;;1999.90;999.90;;;10.40;99.90;;;;;;5025385;28;20442;-47
2020/12/22 17:11:04;;;;;;;1999.90;999.90;;;10.30;99.90;;;;;;5014217;28;20469;-46
2020/12/22 17:13:30;;;;;;;1999.90;999.90;;;10.30;99.90;;;;;;5010133;28;20479;-48
2020/12/22 17:15:56;;;;;;;1999.90;999.90;;;10.30;99.90;;;;;;5050129;28;20567;-47
2020/12/22 17:18:21;;;;;;;1999.90;999.90;;;10.30;99.90;;;;;;5024829;28;20912;-47
2020/12/22 17:20:47;;;;;;;1999.90;999.90;;;10.30;99.90;;;;;;5018131;28;20191;-50
2020/12/22 17:23:13;;;;;;;1999.90;999.90;;;10.20;99.90;;;;;;5013165;28;20714;-46
2020/12/22 17:25:38;;;;;;;1999.90;999.90;;;10.20;99.90;;;;;;5029897;28;20705;-48
2020/12/22 17:28:04;;;;;;;1999.90;999.90;;;10.20;99.90;;;;;;5021256;28;20299;-45
2020/12/22 17:30:30;;;;;;;1999.90;999.90;;;10.20;99.90;;;;;;5027721;28;20276;-47
2020/12/22 17:32:55;;;;;;;1999.90;999.90;;;10.10;99.90;;;;;;5017227;28;20318;-46
2020/12/22 17:35:21;;;;;;;1999.90;999.90;;;10.10;99.90;;;;;;5011198;28;20177;-46
2020/12/22 17:37:47;;;;;;;1999.90;999.90;;;10.10;99.90;;;;;;5017222;28;20219;-46
2020/12/22 17:40:13;;;;;;;1999.90;999.90;;;10.10;99.90;;;;;;5013459;28;20451;-47
2020/12/22 17:42:38;;;;;;;1999.90;999.90;;;10.10;99.90;;;;;;5020249;28;20192;-46
2020/12/22 17:45:05;;;;;;;1999.90;999.90;;;10.10;99.90;;;;;;5025386;28;20287;-47
2020/12/22 17:47:30;;;;;;;1999.90;999.90;;;10.10;99.90;;;;;;5026658;28;20239;-47
2020/12/22 17:49:56;;;;;;;1999.90;999.90;;;10.10;99.90;;;;;;5025199;28;20829;-46
2020/12/22 17:52:22;;;;;;;1999.90;999.90;;;10.10;99.90;;;;;;5023586;28;20685;-47
2020/12/22 17:54:48;;;;;;;1999.90;999.90;;;10.10;99.90;;;;;;5027113;28;20201;-46
2020/12/22 17:57:13;;;;;;;1999.90;999.90;;;10.10;99.90;;;;;;5023431;28;20185;-48
2020/12/22 17:59:40;;;;;;;1999.90;999.90;;;10.20;99.90;;;;;;5027480;28;20182;-46
2020/12/22 18:02:06;;;;;;;1999.90;999.90;;;10.20;99.90;;;;;;5026442;28;20270;-47
2020/12/22 18:04:32;;;;;;;1999.90;999.90;;;10.20;99.90;;;;;;5015875;28;20559;-47
2020/12/22 18:06:58;;;;;;;1999.90;999.90;;;10.20;99.90;;;;;;5013735;28;20444;-47
2020/12/22 18:09:23;;;;;;;1999.90;999.90;;;10.20;99.90;;;;;;5018694;28;20740;-48
2020/12/22 18:11:49;;;;;;;1999.90;999.90;;;10.20;99.90;;;;;;5010632;28;20879;-48
2020/12/22 18:14:15;;;;;;;1999.90;999.90;;;10.20;99.90;;;;;;5011672;28;20213;-47
2020/12/22 18:16:40;;;;;;;1999.90;999.90;;;10.20;99.90;;;;;;5009967;28;20227;-48
2020/12/22 18:19:08;;;;;;;1999.90;999.90;;;10.10;99.90;;;;;;5007032;28;20202;-48
2020/12/22 18:21:34;;;;;;;1999.90;999.90;;;10.10;99.90;;;;;;5006040;28;20193;-47
2020/12/22 18:23:59;;;;;;;1999.90;999.90;;;10.10;99.90;;;;;;5007985;28;20543;-47
2020/12/22 18:26:25;;;;;;;1999.90;999.90;;;10.20;99.90;;;;;;5011906;28;20221;-48
2020/12/22 18:28:51;;;;;;;1999.90;999.90;;;10.20;99.90;;;;;;5014319;28;20188;-47
2020/12/22 18:31:18;;;;;;;1999.90;999.90;;;10.20;99.90;;;;;;5015176;28;20191;-48
2020/12/22 18:33:44;;;;;;;1999.90;999.90;;;10.20;99.90;;;;;;5019658;28;20222;-48
2020/12/22 18:36:10;;;;;;;1999.90;999.90;;;10.20;99.90;;;;;;5013074;28;20444;-47
2020/12/22 18:38:36;;;;;;;1999.90;999.90;;;10.20;99.90;;;;;;5015462;28;20513;-49
2020/12/22 18:41:02;;;;;;;1999.90;999.90;;;10.10;99.90;;;;;;5015615;28;20471;-48
2020/12/22 18:43:28;;;;;;;1999.90;999.90;;;10.10;99.90;;;;;;5019552;28;20494;-48
2020/12/22 18:45:54;;;;;;;1999.90;999.90;;;10.20;99.90;;;;;;5010076;28;21011;-47
2020/12/22 18:48:21;;;;;;;1999.90;999.90;;;10.20;99.90;;;;;;5000441;28;20203;-47
2020/12/22 18:50:47;;;;;;;1999.90;999.90;;;10.10;99.90;;;;;;5008316;28;20447;-47
2020/12/22 18:53:13;;;;;;;1999.90;999.90;;;10.10;99.90;;;;;;5012424;28;20478;-47
2020/12/22 18:55:39;;;;;;;1999.90;999.90;;;10.00;99.90;;;;;;5008741;28;20447;-47
2020/12/22 18:58:05;;;;;;;1999.90;999.90;;;10.00;99.90;;;;;;5012710;28;20448;-47
2020/12/22 19:00:31;;;;;;;1999.90;999.90;;;10.00;99.90;;;;;;5024734;28;20493;-47
2020/12/22 19:02:58;;;;;;;1999.90;999.90;;;10.00;99.90;;;;;;5016218;28;20935;-48
2020/12/22 19:05:23;;;;;;;1999.90;999.90;;;9.90;99.90;;;;;;5011236;28;20904;-47
2020/12/22 19:07:50;;;;;;;1999.90;999.90;;;9.90;99.90;;;;;;5010042;28;20444;-47
2020/12/22 19:10:16;;;;;;;1999.90;999.90;;;9.90;99.90;;;;;;5008742;28;20191;-47
2020/12/22 19:12:42;;;;;;;1999.90;999.90;;;10.00;99.90;;;;;;5014370;28;20465;-48
2020/12/22 19:15:08;;;;;;;1999.90;999.90;;;10.00;99.90;;;;;;5022164;28;20428;-46
2020/12/22 19:17:34;;;;;;;1999.90;999.90;;;10.00;99.90;;;;;;5022637;28;20441;-48
2020/12/22 19:20:00;;;;;;;1999.90;999.90;;;10.00;99.90;;;;;;5017559;28;20675;-47
2020/12/22 19:22:26;;;;;;;1999.90;999.90;;;10.00;99.90;;;;;;5019953;28;20526;-47
2020/12/22 19:24:52;;;;;;;1999.90;999.90;;;10.00;99.90;;;;;;5015543;28;20223;-47
2020/12/22 19:27:18;;;;;;;1999.90;999.90;;;10.00;99.90;;;;;;5020177;28;20678;-47
2020/12/22 19:29:44;;;;;;;1999.90;999.90;;;9.90;99.90;;;;;;5010097;28;20277;-47
2020/12/22 19:32:10;;;;;;;1999.90;999.90;;;9.90;99.90;;;;;;5015688;28;20927;-47
2020/12/22 19:34:36;;;;;;;1999.90;999.90;;;9.90;99.90;;;;;;5023763;28;20519;-48
2020/12/22 19:37:03;;;;;;;1999.90;999.90;;;9.90;99.90;;;;;;5013926;28;20550;-47
2020/12/22 19:39:28;;;;;;;1999.90;999.90;;;9.90;99.90;;;;;;5018297;28;20509;-48
2020/12/22 19:41:54;;;;;;;1999.90;999.90;;;9.90;99.90;;;;;;5015748;28;21115;-48
2020/12/22 19:44:20;;;;;;;1999.90;999.90;;;9.90;99.90;;;;;;5012607;28;20216;-47
2020/12/22 19:46:46;;;;;;;1999.90;999.90;;;9.90;99.90;;;;;;5011772;28;20265;-48
2020/12/22 19:49:13;;;;;;;1999.90;999.90;;;9.90;99.90;;;;;;5013210;28;20800;-48
2020/12/22 19:51:39;;;;;;;1999.90;999.90;;;10.00;99.90;;;;;;5010531;28;20469;-48
2020/12/22 19:54:04;;;;;;;1999.90;999.90;;;9.90;99.90;;;;;;5010227;28;22561;-49
2020/12/22 19:56:30;;;;;;;1999.90;999.90;;;9.90;99.90;;;;;;5013731;28;20429;-50
2020/12/22 19:58:56;;;;;;;1999.90;999.90;;;9.90;99.90;;;;;;5021773;28;20715;-48
2020/12/22 20:01:22;;;;;;;1999.90;999.90;;;10.00;99.90;;;;;;5023860;28;20189;-48
2020/12/22 20:03:48;;;;;;;1999.90;999.90;;;10.00;99.90;;;;;;5016261;28;20224;-48
2020/12/22 20:06:19;;;;;;;1999.90;999.90;;;10.00;99.90;;;;;;5008446;28;20195;-48
2020/12/22 20:08:45;;;;;;;1999.90;999.90;;;10.00;99.90;;;;;;5016828;28;20492;-48
2020/12/22 20:11:11;;;;;;;1999.90;999.90;;;10.00;99.90;;;;;;5012837;28;20444;-49
2020/12/22 20:13:37;;;;;;;1999.90;999.90;;;10.00;99.90;;;;;;5017734;28;20482;-49
2020/12/22 20:16:03;;;;;;;1999.90;999.90;;;10.10;99.90;;;;;;5015253;28;20185;-49
2020/12/22 20:18:29;;;;;;;1999.90;999.90;;;10.10;99.90;;;;;;5014342;28;20440;-49
2020/12/22 20:20:55;;;;;;;1999.90;999.90;;;10.10;99.90;;;;;;5010609;28;20512;-49
2020/12/22 20:23:22;;;;;;;1999.90;999.90;;;10.10;99.90;;;;;;5013695;28;20459;-50
2020/12/22 20:25:48;;;;;;;1999.90;999.90;;;10.10;99.90;;;;;;5014646;28;20590;-50
2020/12/22 20:28:14;;;;;;;1999.90;999.90;;;10.00;99.90;;;;;;5015522;28;21260;-50
2020/12/22 20:30:43;;;;;;;1999.90;999.90;;;10.00;99.90;;;;;;5017801;28;20444;-47
2020/12/22 20:33:10;;;;;;;1999.90;999.90;;;10.00;99.90;;;;;;5013483;28;20562;-47
2020/12/22 20:35:36;;;;;;;1999.90;999.90;;;10.10;99.90;;;;;;5012667;28;20447;-49
2020/12/22 20:38:02;;;;;;;1999.90;999.90;;;10.10;99.90;;;;;;5015540;28;20438;-49
2020/12/22 20:40:29;;;;;;;1999.90;999.90;;;10.10;99.90;;;;;;5016444;28;20677;-49
2020/12/22 20:42:57;;;;;;;1999.90;999.90;;;10.10;99.90;;;;;;5012937;28;20455;-50
2020/12/22 20:45:24;;;;;;;1999.90;999.90;;;10.10;99.90;;;;;;5014959;28;20493;-48
2020/12/22 20:47:51;;;;;;;1999.90;999.90;;;10.10;99.90;;;;;;5015604;28;20854;-47
2020/12/22 20:50:18;;;;;;;1999.90;999.90;;;10.10;99.90;;;;;;5013242;28;20529;-47
2020/12/22 20:52:45;;;;;;;1999.90;999.90;;;10.00;99.90;;;;;;5016503;28;20580;-47
2020/12/22 20:55:11;;;;;;;1999.90;999.90;;;10.00;99.90;;;;;;5015077;28;20440;-47
2020/12/22 20:57:37;;;;;;;1999.90;999.90;;;10.00;99.90;;;;;;5015474;28;21332;-49
2020/12/22 21:00:05;;;;;;;1999.90;999.90;;;10.00;99.90;;;;;;5011511;28;20258;-49
2020/12/22 21:02:32;;;;;;;1999.90;999.90;;;10.00;99.90;;;;;;5017914;28;20443;-49
2020/12/22 21:04:58;;;;;;;1999.90;999.90;;;10.10;99.90;;;;;;5010901;28;20556;-48
2020/12/22 21:07:25;;;;;;;1999.90;999.90;;;10.10;99.90;;;;;;5015729;28;20578;-50
2020/12/22 21:09:52;;;;;;;1999.90;999.90;;;10.10;99.90;;;;;;5013715;28;20436;-49
2020/12/22 21:12:18;;;;;;;1999.90;999.90;;;9.90;99.90;;;;;;5014447;28;20562;-47
2020/12/22 21:14:45;;;;;;;1999.90;999.90;;;9.90;99.90;;;;;;5013708;28;20553;-47
2020/12/22 21:17:12;;;;;;;1999.90;999.90;;;9.90;99.90;;;;;;5014941;28;20446;-47
2020/12/22 21:19:38;;;;;;;1999.90;999.90;;;9.90;99.90;;;;;;5013519;28;20536;-48
2020/12/22 21:22:04;;;;;;;1999.90;999.90;;;9.90;99.90;;;;;;5014925;28;20950;-48
2020/12/22 21:24:30;;;;;;;1999.90;999.90;;;9.90;99.90;;;;;;5013958;28;20464;-47
2020/12/22 21:26:56;;;;;;;1999.90;999.90;;;9.90;99.90;;;;;;5012201;28;20238;-47
2020/12/22 21:29:22;;;;;;;1999.90;999.90;;;9.90;99.90;;;;;;5017424;28;20204;-46
2020/12/22 21:31:52;;;;;;;1999.90;999.90;;;9.90;99.90;;;;;;5012364;28;20446;-47
2020/12/22 21:34:19;;;;;;;1999.90;999.90;;;9.80;99.90;;;;;;5016090;28;20232;-47
2020/12/22 21:36:48;;;;;;;1999.90;999.90;;;9.80;99.90;;;;;;5013391;28;20465;-47
2020/12/22 21:39:14;;;;;;;1999.90;999.90;;;9.90;99.90;;;;;;5026857;28;20447;-46
2020/12/22 21:41:41;;;;;;;1999.90;999.90;;;9.90;99.90;;;;;;5023944;28;20943;-47
2020/12/22 21:44:08;;;;;;;1999.90;999.90;;;10.00;99.90;;;;;;5025065;28;20471;-47
2020/12/22 21:46:34;;;;;;;1999.90;999.90;;;10.00;99.90;;;;;;5026756;28;20565;-47
2020/12/22 21:49:00;;;;;;;1999.90;999.90;;;10.00;99.90;;;;;;5022126;28;20443;-47
2020/12/22 21:51:33;;;;;;;1999.90;999.90;;;10.00;99.90;;;;;;5022096;28;20441;-47
2020/12/22 21:53:59;;;;;;;1999.90;999.90;;;10.00;99.90;;;;;;5022494;28;20456;-46
2020/12/22 21:56:25;;;;;;;1999.90;999.90;;;10.00;99.90;;;;;;5013697;28;20448;-46
2020/12/22 21:58:50;;;;;;;1999.90;999.90;;;10.00;99.90;;;;;;5015721;28;20448;-49
2020/12/22 22:01:16;;;;;;;1999.90;999.90;;;10.00;99.90;;;;;;5013915;28;20213;-48
2020/12/22 22:03:42;;;;;;;1999.90;999.90;;;10.00;99.90;;;;;;5016475;28;20314;-48
2020/12/22 22:06:14;;;;;;;1999.90;999.90;;;10.00;99.90;;;;;;5025844;28;20432;-50
2020/12/22 22:08:40;;;;;;;1999.90;999.90;;;10.00;99.90;;;;;;5025763;28;20351;-49
2020/12/22 22:11:18;;;;;;;1999.90;999.90;;;10.00;99.90;;;;;;5023519;28;20844;-49
2020/12/22 22:13:43;;;;;;;1999.90;999.90;;;10.00;99.90;;;;;;5024003;28;20479;-47
2020/12/22 22:16:12;;;;;;;1999.90;999.90;;;10.00;99.90;;;;;;5019434;28;20433;-49
2020/12/22 22:18:38;;;;;;;1999.90;999.90;;;10.00;99.90;;;;;;5014241;28;20521;-47
2020/12/22 22:21:09;;;;;;;1999.90;999.90;;;10.00;99.90;;;;;;5014232;28;20483;-47
2020/12/22 22:23:35;;;;;;;1999.90;999.90;;;10.00;99.90;;;;;;5023537;28;20571;-46
2020/12/22 22:26:03;;;;;;;1999.90;999.90;;;10.00;99.90;;;;;;5018157;28;20447;-49
2020/12/22 22:28:29;;;;;;;1999.90;999.90;;;10.00;99.90;;;;;;5014713;28;20194;-46
2020/12/22 22:30:54;;;;;;;1999.90;999.90;;;10.00;99.90;;;;;;5024219;28;20534;-48
2020/12/22 22:33:20;;;;;;;1999.90;999.90;;;10.00;99.90;;;;;;5025621;28;20231;-47
2020/12/22 22:35:45;;;;;;;1999.90;999.90;;;9.90;99.90;;;;;;5023256;28;20208;-47
2020/12/22 22:38:11;;;;;;;1999.90;999.90;;;10.00;99.90;;;;;;5008826;28;20198;-50
2020/12/22 22:40:37;;;;;;;1999.90;999.90;;;10.00;99.90;;;;;;5014201;28;20202;-48
2020/12/22 22:43:03;;;;;;;1999.90;999.90;;;9.90;99.90;;;;;;5005821;28;20181;-46
2020/12/22 22:45:29;;;;;;;1999.90;999.90;;;9.90;99.90;;;;;;5010355;28;20440;-48
2020/12/22 22:47:54;;;;;;;1999.90;999.90;;;9.90;99.90;;;;;;5011201;28;20211;-48
2020/12/22 22:50:20;;;;;;;1999.90;999.90;;;10.00;99.90;;;;;;5014017;28;20241;-46
2020/12/22 22:52:46;;;;;;;1999.90;999.90;;;10.00;99.90;;;;;;5025282;28;20228;-47
2020/12/22 22:55:12;;;;;;;1999.90;999.90;;;9.90;99.90;;;;;;5009691;28;20448;-48
2020/12/22 22:57:38;;;;;;;1999.90;999.90;;;9.90;99.90;;;;;;5024263;28;20806;-46
2020/12/22 23:00:10;;;;;;;1999.90;999.90;;;9.90;99.90;;;;;;5030112;28;20182;-48
